Time;durP1;ratioP1;P1;durP2;ratioP2;P2;SDS_P1;SDS_P2;PMS_P1;PMS_P2;Temp;Humidity;BMP_temperature;BMP_pressure;BME280_temperature;BME280_humidity;BME280_pressure;Samples;Min_cycle;Max_cycle;Signal;HPM_P1;HPM_P2
2022/04/18 00:00:49;;;;;;;3.53;2.80;;;6.50;94.00;;;;;;5050594;28;20223;-51
2022/04/18 00:03:17;;;;;;;3.40;3.10;;;6.40;94.20;;;;;;5049559;28;20289;-51
2022/04/18 00:05:45;;;;;;;3.90;3.40;;;6.40;94.20;;;;;;5050540;28;20289;-51
2022/04/18 00:08:14;;;;;;;7.07;4.20;;;6.30;94.80;;;;;;5049898;28;20215;-52
2022/04/18 00:10:44;;;;;;;6.07;3.40;;;6.30;95.00;;;;;;5050214;28;20230;-51
2022/04/18 00:13:12;;;;;;;4.50;3.40;;;6.30;95.20;;;;;;5049481;28;20225;-51
2022/04/18 00:15:40;;;;;;;4.23;3.20;;;6.20;94.90;;;;;;5050267;28;20252;-51
2022/04/18 00:18:08;;;;;;;3.80;3.10;;;6.20;95.50;;;;;;5050365;28;20240;-51
2022/04/18 00:20:36;;;;;;;4.73;3.00;;;6.10;95.50;;;;;;5050309;28;20214;-51
2022/04/18 00:23:05;;;;;;;4.90;2.93;;;6.10;95.60;;;;;;5049196;28;20615;-52
2022/04/18 00:25:33;;;;;;;3.60;2.90;;;6.00;95.90;;;;;;5049805;28;20217;-51
2022/04/18 00:28:03;;;;;;;3.40;2.63;;;6.00;96.00;;;;;;5050240;28;20216;-51
2022/04/18 00:30:32;;;;;;;2.73;2.53;;;5.90;96.40;;;;;;5048546;28;20236;-51
2022/04/18 00:33:00;;;;;;;4.07;3.07;;;5.80;96.30;;;;;;5049807;28;20224;-51
2022/04/18 00:35:28;;;;;;;3.07;2.77;;;5.80;96.70;;;;;;5049566;28;20219;-51
2022/04/18 00:37:56;;;;;;;3.13;2.53;;;5.80;96.90;;;;;;5049713;28;20206;-51
2022/04/18 00:40:24;;;;;;;4.23;2.80;;;5.70;97.10;;;;;;5051636;28;20617;-52
2022/04/18 00:42:52;;;;;;;2.87;2.47;;;5.70;97.50;;;;;;5045364;28;20228;-51
2022/04/18 00:45:22;;;;;;;3.00;2.60;;;5.60;97.30;;;;;;5040190;28;20213;-51
2022/04/18 00:47:50;;;;;;;3.77;3.13;;;5.60;97.60;;;;;;5053373;28;20213;-50
2022/04/18 00:50:19;;;;;;;4.07;3.10;;;5.60;97.10;;;;;;5053698;28;20640;-51
2022/04/18 00:52:50;;;;;;;4.53;2.73;;;5.50;97.20;;;;;;5052358;28;20222;-52
2022/04/18 00:55:19;;;;;;;2.90;2.60;;;5.60;97.50;;;;;;5053386;28;20342;-51
2022/04/18 00:57:49;;;;;;;4.13;2.73;;;5.60;97.60;;;;;;5053270;28;20209;-51
2022/04/18 01:00:17;;;;;;;3.27;2.97;;;5.50;97.30;;;;;;5053360;28;20617;-51
2022/04/18 01:02:46;;;;;;;3.90;3.03;;;5.50;97.60;;;;;;5052545;28;20236;-50
2022/04/18 01:05:15;;;;;;;3.90;3.03;;;5.60;97.60;;;;;;5053131;28;20267;-50
2022/04/18 01:07:44;;;;;;;4.60;3.17;;;5.60;97.90;;;;;;5053097;28;20220;-51
2022/04/18 01:10:12;;;;;;;3.67;2.70;;;5.60;97.70;;;;;;5052896;28;20307;-51
2022/04/18 01:12:41;;;;;;;3.30;3.00;;;5.60;97.70;;;;;;5052225;28;20243;-51
2022/04/18 01:15:10;;;;;;;4.27;3.10;;;5.50;97.90;;;;;;5053444;28;20567;-51
2022/04/18 01:17:38;;;;;;;5.60;3.17;;;5.40;98.30;;;;;;5053040;28;20213;-51
2022/04/18 01:20:09;;;;;;;4.23;3.40;;;5.40;98.30;;;;;;5053287;28;20205;-51
2022/04/18 01:22:42;;;;;;;3.60;3.07;;;5.40;98.60;;;;;;5051745;28;20228;-51
2022/04/18 01:30:41;;;;;;;4.20;2.80;;;5.40;98.70;;;;;;5052473;28;20294;-51
2022/04/18 01:33:09;;;;;;;5.10;3.63;;;5.40;98.80;;;;;;5052425;28;20234;-51
2022/04/18 01:35:38;;;;;;;4.03;3.10;;;5.30;98.80;;;;;;5052305;28;20213;-51
2022/04/18 01:38:08;;;;;;;4.37;2.90;;;5.30;98.90;;;;;;5052142;28;20219;-51
2022/04/18 01:40:36;;;;;;;3.43;3.13;;;5.20;99.00;;;;;;5052604;28;20190;-50
2022/04/18 01:43:04;;;;;;;5.70;3.57;;;5.20;99.40;;;;;;5051654;28;20883;-52
2022/04/18 01:45:32;;;;;;;4.33;3.07;;;5.10;99.50;;;;;;5052281;28;20208;-51
2022/04/18 01:48:01;;;;;;;4.60;3.10;;;5.10;99.90;;;;;;5052487;28;20737;-51
2022/04/18 01:50:29;;;;;;;3.40;3.10;;;5.10;99.80;;;;;;5052362;28;20208;-51
2022/04/18 01:52:57;;;;;;;4.63;2.80;;;5.00;99.90;;;;;;5050257;28;20232;-51
2022/04/18 01:55:27;;;;;;;6.20;3.70;;;5.00;99.90;;;;;;5052568;28;20207;-52
2022/04/18 01:57:55;;;;;;;3.27;2.97;;;5.00;99.90;;;;;;5052126;28;20253;-51
2022/04/18 02:00:23;;;;;;;3.77;3.00;;;4.90;99.90;;;;;;5052299;28;20212;-52
2022/04/18 02:02:52;;;;;;;3.27;2.83;;;4.90;99.90;;;;;;5051781;28;20234;-51
2022/04/18 02:05:20;;;;;;;3.50;3.10;;;4.90;99.90;;;;;;5051985;28;20703;-51
2022/04/18 02:07:49;;;;;;;4.87;3.40;;;4.80;99.90;;;;;;5052278;28;20202;-51
2022/04/18 02:10:17;;;;;;;6.20;3.40;;;4.70;99.90;;;;;;5052079;28;20608;-51
2022/04/18 02:12:46;;;;;;;4.13;3.10;;;4.70;99.90;;;;;;5050766;28;20286;-50
2022/04/18 02:15:16;;;;;;;3.10;2.80;;;4.70;99.90;;;;;;5052476;28;20214;-50
2022/04/18 02:17:44;;;;;;;4.07;3.13;;;4.60;99.90;;;;;;5052541;28;20206;-51
2022/04/18 02:20:12;;;;;;;4.97;3.33;;;4.60;99.90;;;;;;5052530;28;20664;-50
2022/04/18 02:22:40;;;;;;;4.37;3.47;;;4.60;99.90;;;;;;5051688;28;20826;-50
2022/04/18 02:25:10;;;;;;;4.97;3.50;;;4.60;99.90;;;;;;5053390;28;20212;-50
2022/04/18 02:27:38;;;;;;;3.60;3.17;;;4.60;99.90;;;;;;5052936;28;20238;-50
2022/04/18 02:30:10;;;;;;;4.23;3.10;;;4.60;99.90;;;;;;5051009;28;20213;-51
2022/04/18 02:32:51;;;;;;;4.60;3.40;;;4.60;99.90;;;;;;5050972;28;20235;-50
2022/04/18 02:35:21;;;;;;;4.00;3.20;;;4.50;99.90;;;;;;5051444;28;20684;-50
2022/04/18 02:37:50;;;;;;;7.43;3.57;;;4.50;99.90;;;;;;5051949;28;20247;-51
2022/04/18 02:40:19;;;;;;;4.90;3.30;;;4.50;99.90;;;;;;5051618;28;20261;-51
2022/04/18 02:42:47;;;;;;;5.37;3.40;;;4.50;99.90;;;;;;5051193;28;20631;-51
2022/04/18 02:45:18;;;;;;;4.93;3.30;;;4.50;99.90;;;;;;5051417;28;20205;-52
2022/04/18 02:47:48;;;;;;;4.03;3.23;;;4.50;99.90;;;;;;5050781;28;20679;-52
2022/04/18 02:50:16;;;;;;;5.50;3.33;;;4.50;99.90;;;;;;5051278;28;20629;-51
2022/04/18 02:52:44;;;;;;;6.27;3.13;;;4.40;99.90;;;;;;5050416;28;20655;-51
2022/04/18 02:55:12;;;;;;;4.17;3.10;;;4.40;99.90;;;;;;5051424;28;20207;-50
2022/04/18 02:57:41;;;;;;;5.97;3.43;;;4.30;99.90;;;;;;5051595;28;20212;-51
2022/04/18 03:00:10;;;;;;;4.00;3.20;;;4.30;99.90;;;;;;5050893;28;20676;-51
2022/04/18 03:02:40;;;;;;;6.73;3.80;;;4.30;99.90;;;;;;5050102;28;20222;-51
2022/04/18 03:05:10;;;;;;;5.00;3.57;;;4.30;99.90;;;;;;5050935;28;20676;-51
2022/04/18 03:07:39;;;;;;;3.53;3.23;;;4.30;99.90;;;;;;5050842;28;20200;-51
2022/04/18 03:10:08;;;;;;;4.20;3.50;;;4.30;99.90;;;;;;5051171;28;20201;-51
2022/04/18 03:12:36;;;;;;;4.93;3.40;;;4.30;99.90;;;;;;5050166;28;20697;-51
2022/04/18 03:15:06;;;;;;;4.23;3.40;;;4.30;99.90;;;;;;5048023;28;20216;-51
2022/04/18 03:17:34;;;;;;;4.40;3.30;;;4.20;99.90;;;;;;5030844;28;20261;-52
2022/04/18 03:20:05;;;;;;;3.30;2.77;;;4.20;99.90;;;;;;5044633;28;20212;-51
2022/04/18 03:22:33;;;;;;;4.10;3.20;;;4.10;99.90;;;;;;5049618;28;20226;-51
2022/04/18 03:25:01;;;;;;;5.20;3.63;;;4.10;99.90;;;;;;5050806;28;20612;-51
2022/04/18 03:27:29;;;;;;;3.83;3.13;;;4.00;99.90;;;;;;5050549;28;20256;-51
2022/04/18 03:29:57;;;;;;;4.43;2.93;;;4.00;99.90;;;;;;5049782;28;20348;-50
2022/04/18 03:32:25;;;;;;;4.33;3.37;;;4.00;99.90;;;;;;5050169;28;20744;-51
2022/04/18 03:34:54;;;;;;;3.53;3.03;;;4.00;99.90;;;;;;5050868;28;20217;-50
2022/04/18 03:40:10;;;;;;;4.17;2.97;;;4.00;99.90;;;;;;5050903;28;20358;-51
2022/04/18 03:42:38;;;;;;;3.97;3.30;;;3.90;99.90;;;;;;5050623;28;20267;-51
2022/04/18 03:45:07;;;;;;;3.50;2.87;;;4.00;99.90;;;;;;5050916;28;20214;-51
2022/04/18 03:47:35;;;;;;;3.67;3.20;;;4.00;99.90;;;;;;5050452;28;20216;-51
2022/04/18 03:50:04;;;;;;;6.07;3.00;;;3.90;99.90;;;;;;5049637;28;20220;-51
2022/04/18 03:52:34;;;;;;;3.17;2.87;;;3.90;99.90;;;;;;5049312;28;20240;-51
2022/04/18 03:55:07;;;;;;;3.37;3.07;;;3.90;99.90;;;;;;5050659;28;20213;-51
2022/04/18 03:57:35;;;;;;;3.93;3.30;;;3.90;99.90;;;;;;5050923;28;20211;-51
2022/04/18 04:00:04;;;;;;;5.53;3.80;;;3.80;99.90;;;;;;5050368;28;20208;-51
2022/04/18 04:02:33;;;;;;;5.33;3.17;;;3.80;99.90;;;;;;5049765;28;20312;-52
2022/04/18 04:05:01;;;;;;;3.50;3.20;;;3.70;99.90;;;;;;5050477;28;20213;-51
2022/04/18 04:07:29;;;;;;;4.73;3.57;;;3.70;99.90;;;;;;5050629;28;20702;-51
2022/04/18 04:09:59;;;;;;;4.37;3.30;;;3.70;99.90;;;;;;5050803;28;20243;-51
2022/04/18 04:12:28;;;;;;;4.70;3.20;;;3.70;99.90;;;;;;5049886;28;20234;-51
2022/04/18 04:14:56;;;;;;;4.67;3.17;;;3.70;99.90;;;;;;5050207;28;20256;-51
2022/04/18 04:17:28;;;;;;;3.43;2.93;;;3.70;99.90;;;;;;5054194;28;20286;-51
2022/04/18 04:20:17;;;;;;;4.73;3.20;;;3.70;99.90;;;;;;5054055;28;20266;-51
2022/04/18 04:22:45;;;;;;;4.43;3.47;;;3.70;99.90;;;;;;5053287;28;20227;-50
2022/04/18 04:25:15;;;;;;;6.37;4.00;;;3.60;99.90;;;;;;5053896;28;20217;-50
2022/04/18 04:27:43;;;;;;;5.17;3.43;;;3.60;99.90;;;;;;5054240;28;20638;-51
2022/04/18 04:30:12;;;;;;;4.13;3.10;;;3.60;99.90;;;;;;5052242;28;20201;-50
2022/04/18 04:32:40;;;;;;;4.27;3.20;;;3.60;99.90;;;;;;5053556;28;20234;-50
2022/04/18 04:35:08;;;;;;;4.40;3.47;;;3.60;99.90;;;;;;5054025;28;20210;-51
2022/04/18 04:37:36;;;;;;;4.17;3.30;;;3.60;99.90;;;;;;5053788;28;20210;-51
2022/04/18 04:40:06;;;;;;;5.10;3.23;;;3.60;99.90;;;;;;5053806;28;20586;-50
2022/04/18 04:42:35;;;;;;;3.97;3.10;;;3.50;99.90;;;;;;5052986;28;20622;-51
2022/04/18 04:45:04;;;;;;;4.37;3.40;;;3.50;99.90;;;;;;5053590;28;20205;-51
2022/04/18 04:47:32;;;;;;;4.67;3.43;;;3.60;99.90;;;;;;5053585;28;20206;-50
2022/04/18 04:50:00;;;;;;;5.80;3.77;;;3.50;99.90;;;;;;5041219;28;20206;-51
2022/04/18 04:52:28;;;;;;;4.17;3.50;;;3.60;99.90;;;;;;5036055;28;20240;-50
2022/04/18 04:54:57;;;;;;;3.43;3.13;;;3.60;99.90;;;;;;5053148;28;20210;-51
2022/04/18 04:57:25;;;;;;;4.50;3.17;;;3.60;99.90;;;;;;5053581;28;20210;-50
2022/04/18 04:59:55;;;;;;;5.17;3.20;;;4.40;99.90;;;;;;5035185;28;20692;-49
2022/04/18 05:02:24;;;;;;;3.93;3.20;;;5.30;99.90;;;;;;5032893;28;20205;-50
2022/04/18 05:04:52;;;;;;;4.03;3.50;;;5.90;99.90;;;;;;5032661;28;20221;-51
2022/04/18 05:07:20;;;;;;;2.93;2.70;;;6.50;99.90;;;;;;5033027;28;20206;-50
2022/04/18 05:09:49;;;;;;;3.83;2.97;;;6.90;99.90;;;;;;5047056;28;20202;-50
2022/04/18 05:12:18;;;;;;;3.67;2.83;;;7.20;99.90;;;;;;5046831;28;20216;-50
2022/04/18 05:14:47;;;;;;;3.47;2.73;;;7.50;99.90;;;;;;5043937;28;20276;-50
2022/04/18 05:17:16;;;;;;;4.67;3.00;;;7.70;99.90;;;;;;5033054;28;20232;-49
2022/04/18 05:19:45;;;;;;;5.70;2.97;;;7.60;99.90;;;;;;5043969;28;20618;-50
2022/04/18 05:22:13;;;;;;;5.80;3.47;;;7.20;99.90;;;;;;5043647;28;20240;-51
2022/04/18 05:24:42;;;;;;;3.57;3.10;;;7.20;99.90;;;;;;5033826;28;20222;-51
2022/04/18 05:27:15;;;;;;;4.97;2.80;;;7.20;99.90;;;;;;5032878;28;20621;-51
2022/04/18 05:29:43;;;;;;;3.50;2.83;;;7.00;99.90;;;;;;5032646;28;20216;-51
2022/04/18 05:32:11;;;;;;;3.27;2.80;;;7.10;99.90;;;;;;5031922;28;20206;-51
2022/04/18 05:34:41;;;;;;;3.53;2.97;;;7.00;99.90;;;;;;5032416;28;20240;-51
2022/04/18 05:37:10;;;;;;;3.47;3.10;;;7.10;99.90;;;;;;5030582;28;20210;-51
2022/04/18 05:39:38;;;;;;;3.27;2.80;;;7.20;99.90;;;;;;5032771;28;20563;-51
2022/04/18 05:42:07;;;;;;;3.20;2.83;;;7.10;99.90;;;;;;5032350;28;20214;-51
2022/04/18 05:44:36;;;;;;;3.30;2.70;;;7.10;99.90;;;;;;5032876;28;20297;-51
2022/04/18 05:47:04;;;;;;;4.00;3.03;;;7.00;99.90;;;;;;5052029;28;20209;-50
2022/04/18 05:49:32;;;;;;;4.40;2.90;;;7.00;99.90;;;;;;5051593;28;20201;-51
2022/04/18 05:52:02;;;;;;;4.73;3.00;;;7.10;99.90;;;;;;5051609;28;20678;-50
2022/04/18 05:54:30;;;;;;;4.30;2.93;;;7.00;99.90;;;;;;5051606;28;20274;-51
2022/04/18 05:57:00;;;;;;;3.00;2.70;;;7.00;99.90;;;;;;5052351;28;20213;-51
2022/04/18 05:59:29;;;;;;;7.83;3.77;;;7.00;99.90;;;;;;5052254;28;20209;-51
2022/04/18 06:01:57;;;;;;;6.03;3.60;;;7.30;99.90;;;;;;5051325;28;20208;-51
2022/04/18 06:04:25;;;;;;;3.63;2.80;;;7.20;99.90;;;;;;5052194;28;20263;-51
2022/04/18 06:06:53;;;;;;;5.57;3.37;;;7.40;99.90;;;;;;5052059;28;20208;-50
2022/04/18 06:09:23;;;;;;;5.30;2.80;;;7.60;99.90;;;;;;5050292;28;20198;-50
2022/04/18 06:11:51;;;;;;;3.90;3.10;;;7.70;99.90;;;;;;5051064;28;20209;-51
2022/04/18 06:14:19;;;;;;;3.23;2.87;;;7.70;99.90;;;;;;5046827;28;20233;-51
2022/04/18 06:16:47;;;;;;;3.70;3.13;;;7.80;99.90;;;;;;5050956;28;20271;-51
2022/04/18 06:19:16;;;;;;;3.17;2.80;;;8.50;99.90;;;;;;5050960;28;20296;-51
2022/04/18 06:21:44;;;;;;;3.40;3.10;;;9.30;99.90;;;;;;5049904;28;20693;-51
2022/04/18 06:24:12;;;;;;;3.30;3.00;;;10.00;99.90;;;;;;5048597;28;20280;-51
2022/04/18 06:26:42;;;;;;;4.47;3.47;;;10.70;99.90;;;;;;5050911;28;20205;-51
2022/04/18 06:29:10;;;;;;;4.03;3.23;;;11.20;99.90;;;;;;5051036;28;20628;-51
2022/04/18 06:31:38;;;;;;;8.20;3.60;;;11.80;99.90;;;;;;5049904;28;20202;-51
2022/04/18 06:34:07;;;;;;;4.83;3.60;;;12.30;99.90;;;;;;5050609;28;20229;-51
2022/04/18 06:36:35;;;;;;;4.23;3.50;;;12.60;99.90;;;;;;5049809;28;20210;-51
2022/04/18 06:39:03;;;;;;;31.27;20.83;;;12.90;99.90;;;;;;5049975;28;20202;-51
2022/04/18 06:41:32;;;;;;;7.57;5.37;;;13.20;99.90;;;;;;5048459;28;20240;-51
2022/04/18 06:44:01;;;;;;;5.57;4.10;;;13.50;99.80;;;;;;5045904;28;20214;-51
2022/04/18 06:46:29;;;;;;;4.40;3.33;;;13.70;99.30;;;;;;5052428;28;20227;-51
2022/04/18 06:48:57;;;;;;;4.13;3.17;;;13.90;99.20;;;;;;5058473;28;20743;-51
2022/04/18 06:51:25;;;;;;;4.82;3.58;;;14.10;99.10;;;;;;5051025;28;20209;-51
2022/04/18 06:53:54;;;;;;;4.07;3.35;;;14.30;98.30;;;;;;5049390;28;20229;-50
2022/04/18 06:59:09;;;;;;;4.47;3.05;;;14.60;97.90;;;;;;5051402;28;20252;-51
2022/04/18 07:01:37;;;;;;;3.80;3.50;;;14.90;97.90;;;;;;5051181;28;20209;-51
2022/04/18 07:04:06;;;;;;;4.97;3.50;;;15.10;97.20;;;;;;5050211;28;20264;-51
2022/04/18 07:06:35;;;;;;;3.65;3.28;;;15.20;97.10;;;;;;5051038;28;20209;-51
2022/04/18 07:09:03;;;;;;;3.88;3.20;;;15.40;97.00;;;;;;5050203;28;20212;-51
2022/04/18 07:11:31;;;;;;;4.70;3.30;;;15.50;97.00;;;;;;5050131;28;20255;-51
2022/04/18 07:13:59;;;;;;;4.57;2.70;;;15.60;96.90;;;;;;5049380;28;20221;-51
2022/04/18 07:16:30;;;;;;;3.88;3.03;;;15.90;96.90;;;;;;5050807;28;20209;-51
2022/04/18 07:18:59;;;;;;;3.35;2.97;;;16.00;95.80;;;;;;5051033;28;20190;-51
2022/04/18 07:21:27;;;;;;;3.30;3.00;;;15.90;94.00;;;;;;5050174;28;20205;-51
2022/04/18 07:23:56;;;;;;;4.10;3.30;;;16.10;93.90;;;;;;5049985;28;20825;-51
2022/04/18 07:26:24;;;;;;;3.30;3.00;;;16.30;93.50;;;;;;5048967;28;20267;-49
2022/04/18 07:28:53;;;;;;;3.88;3.53;;;16.30;93.60;;;;;;5037997;28;20232;-49
2022/04/18 07:31:21;;;;;;;5.65;4.53;;;16.30;92.90;;;;;;5048319;28;20213;-49
2022/04/18 07:33:51;;;;;;;3.75;3.35;;;16.20;93.00;;;;;;5046622;28;20312;-49
2022/04/18 07:36:19;;;;;;;3.45;3.15;;;16.50;92.00;;;;;;5048003;28;20697;-48
2022/04/18 07:38:51;;;;;;;3.63;3.25;;;16.60;91.70;;;;;;5049379;28;20209;-50
2022/04/18 07:41:21;;;;;;;3.75;3.20;;;16.60;91.70;;;;;;5050671;28;20201;-49
2022/04/18 07:43:49;;;;;;;5.07;3.40;;;16.70;91.80;;;;;;5049372;28;20631;-49
2022/04/18 07:46:18;;;;;;;3.85;2.97;;;16.80;92.00;;;;;;5044059;28;20209;-50
2022/04/18 07:48:48;;;;;;;3.63;3.15;;;16.90;90.70;;;;;;5042389;28;20206;-52
2022/04/18 07:51:34;;;;;;;3.85;3.17;;;17.10;91.10;;;;;;5052497;28;20210;-51
2022/04/18 07:54:04;;;;;;;5.90;3.33;;;17.20;90.60;;;;;;5036415;28;20252;-51
2022/04/18 07:56:33;;;;;;;4.82;3.60;;;16.90;91.00;;;;;;5048785;28;20198;-50
2022/04/18 07:59:02;;;;;;;5.90;4.43;;;17.10;90.70;;;;;;5053275;28;20693;-51
2022/04/18 08:01:31;;;;;;;5.82;3.67;;;16.90;90.20;;;;;;5051134;28;20210;-52
2022/04/18 08:04:01;;;;;;;6.28;4.60;;;16.60;90.50;;;;;;5054355;28;20233;-51
2022/04/18 08:06:32;;;;;;;8.65;6.15;;;16.20;90.50;;;;;;5050399;28;20202;-51
2022/04/18 08:09:00;;;;;;;5.10;3.33;;;15.90;88.00;;;;;;5053388;28;20253;-51
2022/04/18 08:11:29;;;;;;;4.90;3.53;;;15.70;87.10;;;;;;5050412;28;20206;-51
2022/04/18 08:13:57;;;;;;;3.78;3.28;;;15.70;89.60;;;;;;5052772;28;20225;-50
2022/04/18 08:16:25;;;;;;;4.03;3.13;;;15.60;90.90;;;;;;5050018;28;20201;-50
2022/04/18 08:18:54;;;;;;;4.70;3.15;;;15.60;89.80;;;;;;5053974;28;20288;-50
2022/04/18 08:21:22;;;;;;;4.68;3.78;;;15.50;91.60;;;;;;5046923;28;20218;-51
2022/04/18 08:23:52;;;;;;;4.70;3.42;;;15.50;89.00;;;;;;5050021;28;20237;-51
2022/04/18 08:26:21;;;;;;;4.28;3.88;;;15.30;87.40;;;;;;5049288;28;20205;-51
2022/04/18 08:28:51;;;;;;;3.80;3.40;;;15.30;90.10;;;;;;5050913;28;20213;-51
2022/04/18 08:31:19;;;;;;;6.35;4.07;;;15.30;86.10;;;;;;5050942;28;20202;-49
2022/04/18 08:33:47;;;;;;;5.82;3.72;;;15.30;90.20;;;;;;5051349;28;20299;-51
2022/04/18 08:36:16;;;;;;;4.28;3.78;;;15.40;88.60;;;;;;5052282;28;20703;-51
2022/04/18 08:38:44;;;;;;;4.80;3.30;;;15.40;88.80;;;;;;5052861;28;20212;-51
2022/04/18 08:41:18;;;;;;;4.10;3.53;;;15.30;85.50;;;;;;5047143;28;20283;-51
2022/04/18 08:43:47;;;;;;;4.15;3.75;;;15.40;88.70;;;;;;5047796;28;20294;-51
2022/04/18 08:46:18;;;;;;;5.40;3.50;;;15.50;89.30;;;;;;5048044;28;20206;-51
2022/04/18 08:54:23;;;;;;;4.68;3.70;;;15.40;85.00;;;;;;5047788;28;20221;-49
2022/04/18 08:56:53;;;;;;;4.83;3.30;;;15.60;88.70;;;;;;5046868;28;20202;-51
2022/04/18 08:59:21;;;;;;;3.85;3.42;;;15.60;89.40;;;;;;5049791;28;20202;-50
2022/04/18 09:01:52;;;;;;;4.55;3.50;;;15.50;84.90;;;;;;5049842;28;20209;-50
2022/04/18 09:04:38;;;;;;;4.82;3.22;;;15.40;84.70;;;;;;5052063;28;20229;-50
2022/04/18 09:07:20;;;;;;;4.13;3.60;;;15.30;82.20;;;;;;5052110;28;20209;-51
2022/04/18 09:10:04;;;;;;;3.78;3.10;;;15.40;88.40;;;;;;5054340;28;20221;-50
2022/04/18 09:13:03;;;;;;;4.60;3.42;;;15.40;89.00;;;;;;5045455;28;20229;-51
2022/04/18 09:15:36;;;;;;;3.30;3.00;;;15.40;85.50;;;;;;5048207;28;20323;-50
2022/04/18 09:18:10;;;;;;;3.80;3.40;;;15.40;83.30;;;;;;5052292;28;20255;-51
2022/04/18 09:20:46;;;;;;;5.13;3.60;;;15.40;87.00;;;;;;5049263;28;20210;-51
2022/04/18 09:23:26;;;;;;;4.37;3.30;;;15.40;84.40;;;;;;5050052;28;20221;-50
2022/04/18 09:25:56;;;;;;;6.03;3.50;;;15.40;84.70;;;;;;5049801;28;20201;-50
2022/04/18 09:28:31;;;;;;;4.07;3.20;;;15.40;85.80;;;;;;5048710;28;20209;-50
2022/04/18 09:31:01;;;;;;;4.75;3.25;;;15.40;84.60;;;;;;5051656;28;20215;-51
2022/04/18 09:33:43;;;;;;;3.90;3.50;;;15.40;87.70;;;;;;5041774;28;20275;-50
2022/04/18 09:36:14;;;;;;;4.38;3.25;;;15.40;87.30;;;;;;5045634;28;20279;-51
2022/04/18 09:39:15;;;;;;;4.87;3.30;;;15.30;84.60;;;;;;5050069;28;20210;-50
2022/04/18 09:41:44;;;;;;;7.00;3.73;;;15.40;86.90;;;;;;5046887;28;20667;-51
2022/04/18 09:44:24;;;;;;;5.27;3.53;;;15.40;83.90;;;;;;5050141;28;20236;-51
2022/04/18 09:46:53;;;;;;;3.93;3.50;;;15.30;85.50;;;;;;5049024;28;20634;-49
2022/04/18 09:49:21;;;;;;;3.80;3.37;;;15.30;81.70;;;;;;5047851;28;20288;-50
2022/04/18 09:51:52;;;;;;;6.37;3.83;;;15.40;85.20;;;;;;5045122;28;20218;-50
2022/04/18 09:54:21;;;;;;;4.70;3.47;;;15.50;87.90;;;;;;5048390;28;20283;-50
2022/04/18 09:56:52;;;;;;;5.10;3.30;;;15.60;88.70;;;;;;5049846;28;20229;-51
2022/04/18 09:59:22;;;;;;;4.53;3.23;;;15.60;86.20;;;;;;5046828;28;20208;-51
2022/04/18 10:01:51;;;;;;;3.57;3.10;;;15.60;85.10;;;;;;5047683;28;20209;-51
2022/04/18 10:04:19;;;;;;;4.82;3.42;;;15.70;86.70;;;;;;5048739;28;20265;-51
2022/04/18 10:06:50;;;;;;;4.27;2.97;;;15.50;84.30;;;;;;5048074;28;20747;-50
2022/04/18 10:09:19;;;;;;;4.22;2.97;;;15.60;85.50;;;;;;5045185;28;20224;-51
2022/04/18 10:11:48;;;;;;;4.67;3.13;;;15.70;86.70;;;;;;5047497;28;20220;-50
2022/04/18 10:14:16;;;;;;;3.70;3.13;;;15.70;87.50;;;;;;5047088;28;20741;-50
2022/04/18 10:16:46;;;;;;;4.38;3.30;;;15.80;87.80;;;;;;5051609;28;20226;-51
2022/04/18 10:19:29;;;;;;;3.85;3.25;;;15.80;90.10;;;;;;5049220;28;20295;-51
2022/04/18 10:22:13;;;;;;;4.20;2.90;;;15.80;87.60;;;;;;5048675;28;20224;-51
2022/04/18 10:25:06;;;;;;;3.80;3.10;;;15.90;89.50;;;;;;5049403;28;20643;-51
2022/04/18 10:28:01;;;;;;;3.93;3.10;;;15.70;83.10;;;;;;5041425;28;20206;-50
2022/04/18 10:30:36;;;;;;;3.47;3.10;;;15.80;87.00;;;;;;5046979;28;20252;-50
2022/04/18 10:33:13;;;;;;;3.28;2.88;;;15.80;85.80;;;;;;5152939;27;20626;-51
2022/04/18 10:35:52;;;;;;;3.13;2.83;;;15.70;84.40;;;;;;5125927;27;20720;-50
2022/04/18 10:38:26;;;;;;;3.88;3.03;;;15.80;91.40;;;;;;5125968;28;20202;-51
2022/04/18 10:41:14;;;;;;;4.20;3.30;;;15.80;84.70;;;;;;5125412;28;20211;-50
2022/04/18 10:44:08;;;;;;;4.25;3.20;;;15.80;80.70;;;;;;5124449;27;20268;-51
2022/04/18 10:46:38;;;;;;;3.70;3.25;;;15.90;88.30;;;;;;5122338;27;20203;-50
2022/04/18 10:49:15;;;;;;;4.13;3.03;;;15.80;83.60;;;;;;5125861;27;20203;-50
2022/04/18 10:51:45;;;;;;;3.65;2.90;;;15.90;86.50;;;;;;5119251;28;20285;-52
2022/04/18 10:54:16;;;;;;;4.25;2.92;;;16.00;88.20;;;;;;5109697;28;20218;-51
2022/04/18 10:56:52;;;;;;;4.55;3.00;;;16.00;85.00;;;;;;5111564;28;20206;-50
2022/04/18 10:59:23;;;;;;;5.20;3.20;;;15.90;82.90;;;;;;5112236;28;20211;-50
2022/04/18 11:01:52;;;;;;;3.40;2.90;;;16.00;86.30;;;;;;5110926;28;20203;-50
2022/04/18 11:04:25;;;;;;;4.25;3.28;;;16.00;87.10;;;;;;5117187;27;20953;-51
2022/04/18 11:07:03;;;;;;;3.50;2.83;;;15.90;83.10;;;;;;5123757;28;20676;-50
2022/04/18 11:09:34;;;;;;;4.63;2.80;;;16.00;83.70;;;;;;5126453;28;20628;-49
2022/04/18 11:12:07;;;;;;;3.90;2.60;;;16.00;84.70;;;;;;5125506;28;20222;-49
2022/04/18 11:14:49;;;;;;;4.93;2.85;;;16.10;88.80;;;;;;5125207;28;20199;-50
2022/04/18 11:17:30;;;;;;;3.92;2.90;;;16.20;83.80;;;;;;5124687;28;20203;-50
2022/04/18 11:20:27;;;;;;;3.75;2.90;;;16.20;88.60;;;;;;5122515;28;20210;-49
2022/04/18 11:23:16;;;;;;;3.75;2.83;;;16.10;86.00;;;;;;5124595;27;20223;-50
2022/04/18 11:25:57;;;;;;;4.53;2.60;;;16.00;81.60;;;;;;5127219;27;20199;-49
2022/04/18 11:28:32;;;;;;;4.38;2.65;;;16.00;79.40;;;;;;5126047;28;20555;-51
2022/04/18 11:31:00;;;;;;;3.00;2.50;;;16.10;82.90;;;;;;5126505;28;20256;-50
2022/04/18 11:33:28;;;;;;;3.03;2.72;;;16.10;84.60;;;;;;5124869;27;20235;-50
2022/04/18 11:36:03;;;;;;;3.67;2.50;;;16.10;86.30;;;;;;5126166;28;20745;-50
2022/04/18 11:38:31;;;;;;;3.58;2.53;;;16.30;84.50;;;;;;5125483;27;20202;-50
2022/04/18 11:40:59;;;;;;;3.63;2.40;;;16.30;84.90;;;;;;5126576;28;20660;-50
2022/04/18 11:43:28;;;;;;;2.50;2.30;;;16.30;84.20;;;;;;5111246;27;20273;-51
2022/04/18 11:46:04;;;;;;;2.83;2.35;;;16.30;84.70;;;;;;5100754;28;20203;-50
2022/04/18 11:48:32;;;;;;;4.00;2.50;;;16.30;79.60;;;;;;5102190;28;20203;-51
2022/04/18 11:51:02;;;;;;;2.67;2.30;;;16.20;82.00;;;;;;5100065;28;20242;-51
2022/04/18 11:53:32;;;;;;;2.80;2.10;;;16.20;79.00;;;;;;5109092;28;20644;-50
2022/04/18 11:56:04;;;;;;;4.32;2.38;;;16.20;78.80;;;;;;5109646;28;20211;-50
2022/04/18 11:58:36;;;;;;;2.85;2.30;;;16.20;80.50;;;;;;5109094;28;20207;-51
2022/04/18 12:06:48;;;;;;;5.00;2.00;;;16.40;82.70;;;;;;5107229;28;20204;-51
2022/04/18 12:09:20;;;;;;;4.82;2.45;;;16.40;83.20;;;;;;5110118;28;20260;-51
2022/04/18 12:11:48;;;;;;;2.33;2.13;;;16.50;85.20;;;;;;5110653;28;20203;-50
2022/04/18 12:14:18;;;;;;;2.20;2.00;;;16.50;83.70;;;;;;5110427;27;20432;-50
2022/04/18 12:16:46;;;;;;;2.75;2.00;;;16.50;80.10;;;;;;5109863;28;20211;-51
2022/04/18 12:19:17;;;;;;;2.78;2.13;;;16.50;79.30;;;;;;5110503;28;20204;-50
2022/04/18 12:21:51;;;;;;;2.35;2.03;;;16.50;78.60;;;;;;5109820;28;20211;-50
2022/04/18 12:24:19;;;;;;;3.45;2.05;;;16.50;81.70;;;;;;5109984;28;20625;-51
2022/04/18 12:26:51;;;;;;;3.03;1.83;;;16.50;80.10;;;;;;5110471;28;20627;-50
2022/04/18 12:29:20;;;;;;;2.65;1.98;;;16.50;79.40;;;;;;5110245;28;20207;-51
2022/04/18 12:31:49;;;;;;;4.20;2.00;;;16.30;73.10;;;;;;5108900;28;20672;-51
2022/04/18 12:34:18;;;;;;;3.22;2.10;;;16.30;75.60;;;;;;5110064;28;20231;-49
2022/04/18 12:36:56;;;;;;;4.38;1.80;;;16.40;73.20;;;;;;5113115;27;20857;-50
2022/04/18 12:39:25;;;;;;;3.47;2.22;;;16.40;76.70;;;;;;5110858;28;20274;-50
2022/04/18 12:42:01;;;;;;;2.40;2.10;;;16.30;75.20;;;;;;5104621;28;20299;-51
2022/04/18 12:44:30;;;;;;;4.15;2.10;;;16.40;79.00;;;;;;5107960;28;20250;-50
2022/04/18 12:46:59;;;;;;;2.75;2.10;;;16.40;75.90;;;;;;5108953;28;20733;-51
2022/04/18 12:49:27;;;;;;;3.03;1.92;;;16.40;79.80;;;;;;5109675;27;20635;-50
2022/04/18 12:51:56;;;;;;;3.15;1.73;;;16.40;79.70;;;;;;5108670;28;20837;-50
2022/04/18 12:54:26;;;;;;;2.83;2.13;;;16.40;78.90;;;;;;5108047;27;20239;-51
2022/04/18 12:56:54;;;;;;;2.22;2.03;;;16.50;83.30;;;;;;5107908;28;20753;-50
2022/04/18 12:59:24;;;;;;;2.17;1.98;;;16.60;80.70;;;;;;5107920;28;20221;-51
2022/04/18 13:01:53;;;;;;;2.35;1.80;;;16.60;82.00;;;;;;5095180;28;20287;-50
2022/04/18 13:04:23;;;;;;;1.80;1.65;;;16.60;78.20;;;;;;5104262;27;20269;-51
2022/04/18 13:07:02;;;;;;;2.78;2.00;;;16.60;81.50;;;;;;5110881;28;20204;-50
2022/04/18 13:09:31;;;;;;;1.83;1.60;;;16.60;80.40;;;;;;5110179;28;20227;-51
2022/04/18 13:12:04;;;;;;;2.65;1.90;;;16.70;77.70;;;;;;5109867;28;20643;-49
2022/04/18 13:14:34;;;;;;;2.15;1.80;;;16.60;77.80;;;;;;5111300;28;20249;-51
2022/04/18 13:17:07;;;;;;;4.07;1.98;;;16.60;78.60;;;;;;5111352;28;20268;-51
2022/04/18 13:19:36;;;;;;;2.22;1.90;;;16.60;79.80;;;;;;5111414;28;20729;-50
2022/04/18 13:22:06;;;;;;;2.72;2.00;;;16.70;79.70;;;;;;5110705;28;20212;-51
2022/04/18 13:24:35;;;;;;;2.78;2.08;;;16.60;76.90;;;;;;5111863;27;20230;-51
2022/04/18 13:27:03;;;;;;;2.03;1.70;;;16.70;84.60;;;;;;5111506;28;20291;-51
2022/04/18 13:29:32;;;;;;;2.53;1.90;;;16.60;76.10;;;;;;5110557;28;20211;-50